Manchester, Massachusetts
Current Conditions -  °F | °C
As of 1:53 AM on Saturday 29 Nov 2014 (Local Time) from KBVY Reporting Station
Clear Clear  
Wind Chill: 11°   Ceiling: Unl
Heat Index: 20°   Visibility: 10mi
Dew Point: 11°   Wind: 7mph
Humidity: 68%   Direction: 310°NW
Pressure: 30.23"   Gusts: NA
Location:  42.58°N, 70.77°W
Report Text: KBVY 290653Z AUTO 31006KT 10SM CLR M07/M12 A3023 RMK AO2 SLP234 T10671117
Loading
Personal Weather Stations






























Interactive Weather Map New forecast layout! Learn more

10-Day Weather Forecast

Advertisements
Track Severe Weather on mobile